Kezdőlap
METAR-TAF:

METAR-TAF

Repülőterek :

Dallas-Fort Worth, Texas, Amerikai Egyesült Államok

földrajzi szélesség: 32-53-49N, földrajzi hosszúság: 097-01-19W, magasság: 183 m

Jelenlegi meteorológiai megfigyelések

A jelentés 53 perccel ezelõtt készült, 13:53 UTC
Dél-délnyugati szél 4 kt
Hőmérséklet 27°C
Páratartalom 70%
Légköri nyomás 1015 hPa
Látótávolság: 16.1 km
Kevés felhő 1000 lábon

METAR: KDFW 191353Z 20004KT 10SM FEW010 27/21 A2996 RMK AO2 SLP134 FU FEW010 W-NW T02670211

Idő: 09:46 (14:46 UTC)

Előrejelzés

A jelentés 3 órával és 16 perccel ezelõtt készült, 11:30 UTC
Az előrejelzés 19-én 12 óra UTC és 20-én 18 óra UTC között érvényes
Déli szél 9 kt
Látótávolság: 10 km
Kevés felhő 5000 lábon

TAF: KDFW 191130Z 1912/2018 18009KT P6SM FEW050

Meteorológiai megfigyelések és előrejelzések több, mint 4000 repülőtéren (METAR és TAF jelentéseket).

A térképen piros és sárga pontok jelzik az elérhető meteorológiai állomásokat.

Mozgassa az egeret a pont fölött, hogy megjelenjen az állomás neve.

Azután kattintson az időjárási megfigyelések és előrejelzések megtekintéséhez.

A térkép megváltoztatása: kattintson a fekete keresztel jelölt zöld gombra ráközelítéshez, a vonallal jelölt zöld gombra távolításhoz, vagy a zöld nyilakra a szomszédos térképek eléréséhez.


METAR-TAF: